UKOH/KHE METAR and TAF weather

Enter ICAO airport designator
Station Type Date Time Source
UKOH METAR 2020/02/19 14:30 UTC NOAA

UKOH 191430Z VRB01MPS 9999 SCT046 10/03 Q1017 R03/CLRD65 NOSIG


Station Type Date Time Source
UKOH Decoded METAR 2020/02/19 14:30 UTC NOAA

Station name not available
Feb 19, 2020 - 09:30 AM EST / 2020.02.19 1430 UTC
Wind: Variable at 2 MPH (2 KT):0
Visibility: greater than 7 mile(s):0
Sky conditions: partly cloudy
Temperature: 50 F (10 C)
Dew Point: 37 F (3 C)
Relative Humidity: 61%
Pressure (altimeter): 30.03 in. Hg (1017 hPa)
ob: UKOH 191430Z VRB01MPS 9999 SCT046 10/03 Q1017 R03/CLRD65 NOSIG
cycle: 14

Station Type Date Time Source
UKOH TAF UTC NOAA

Error!

Example: see airport list